Main page
METAR-TAF:

METAR-TAF

Airports :

Hua Hin Airport

Hua Hin, Thailand

latitude: 12-35N, longitude: 099-57E, elevation: 5 m

Current weather observation

The report was made 1 hour and 14 minutes ago, at 03:00 UTC
Wind 4 kt from variable directions
Temperature 31°C
Humidity 59%
Pressure 1014 hPa
Visibility: 8000 m
Few clouds at a height of 3000 ft

METAR: VTPH 250300Z VRB04KT 8000 FEW030 31/22 Q1014 NOSIG

Time: 11:14 (04:14 UTC)

Forecast

The report was made 5 hours and 14 minutes ago, at 23:00 UTC
Forecast valid from 25 at 00 UTC to 25 at 24 UTC
Wind kt from the North
Visibility: 7000 m
Becoming
from 25 at 02 UTC to 25 at 04 UTC
Wind 8 kt from the Southeast
Visibility 10 km or more
Few clouds at a height of 3000 ft
Becoming
from 25 at 14 UTC to 25 at 16 UTC
Wind kt from the North

TAF: VTPH 242300Z 2500/2524 00000KT 7000 NSC BECMG 2502/2504 13008KT 9999 FEW030 BECMG 2514/2516 00000KT

Weather observations and forecasts of more than 4000 airports (METAR and TAF reports).

The available stations are represented by yellow and red dots on the map.

Hover mouse over dot to see the name of the station.

Then click to see weather observations and forecasts.

To change the map : click on the green buttons with a black cross to zoom in, on the green button with a dash to zoom out, or on the green arrows for adjacent maps.


METAR-TAF: